createdAt,value
2022-08-10T00:01:52.268Z,24.10
2022-08-10T00:04:22.711Z,23.90
2022-08-10T00:06:53.204Z,23.90
2022-08-10T00:09:21.837Z,23.80
2022-08-10T00:11:51.917Z,23.80
2022-08-10T00:14:20.256Z,23.70
2022-08-10T00:16:48.935Z,23.70
2022-08-10T00:19:18.207Z,23.60
2022-08-10T00:21:47.017Z,23.60
2022-08-10T00:24:15.720Z,23.50
2022-08-10T00:27:51.830Z,23.50
2022-08-10T00:29:33.746Z,23.50
2022-08-10T00:32:02.054Z,23.50
2022-08-10T00:34:31.526Z,23.50
2022-08-10T00:37:00.760Z,23.50
2022-08-10T00:39:30.173Z,23.50
2022-08-10T00:42:08.190Z,23.50
2022-08-10T00:44:39.149Z,23.50
2022-08-10T00:47:17.498Z,23.50
2022-08-10T00:49:56.910Z,23.50
2022-08-10T00:52:27.360Z,23.60
2022-08-10T00:54:57.490Z,23.70
2022-08-10T00:57:26.459Z,23.70
2022-08-10T00:59:59.526Z,23.70
2022-08-10T01:02:30.787Z,23.70
2022-08-10T01:05:03.584Z,23.80
2022-08-10T01:08:11.111Z,23.80
2022-08-10T01:10:47.510Z,23.80
2022-08-10T01:13:25.741Z,23.80
2022-08-10T01:16:05.448Z,23.80
2022-08-10T01:18:44.650Z,23.80
2022-08-10T01:22:01.721Z,23.80
2022-08-10T01:25:12.575Z,23.80
2022-08-10T01:27:52.678Z,23.80
2022-08-10T01:30:24.201Z,23.80
2022-08-10T01:33:01.737Z,23.80
2022-08-10T01:35:37.637Z,23.80
2022-08-10T01:38:10.626Z,23.80
2022-08-10T01:40:45.401Z,23.90
2022-08-10T01:43:17.402Z,23.90
2022-08-10T01:45:51.850Z,23.90
2022-08-10T01:48:31.632Z,23.90
2022-08-10T01:51:19.771Z,23.90
2022-08-10T01:53:55.295Z,23.90
2022-08-10T01:56:27.147Z,23.90
2022-08-10T01:58:59.392Z,23.90
2022-08-10T02:01:36.190Z,23.90
2022-08-10T02:04:10.350Z,23.90
2022-08-10T02:06:44.408Z,23.90
2022-08-10T02:09:18.209Z,23.90
2022-08-10T02:11:55.834Z,23.90
2022-08-10T02:14:43.083Z,23.90
2022-08-10T02:18:00.500Z,23.80
2022-08-10T02:20:11.049Z,23.80
2022-08-10T02:22:40.759Z,23.80
2022-08-10T02:25:39.916Z,23.80
2022-08-10T02:28:00.470Z,23.80
2022-08-10T02:30:31.431Z,23.80
2022-08-10T02:33:03.214Z,23.70
2022-08-10T02:35:53.876Z,23.70
2022-08-10T02:38:58.557Z,23.70
2022-08-10T02:45:12.566Z,23.80
2022-08-10T02:45:18.412Z,23.60
2022-08-10T02:47:23.405Z,23.60
2022-08-10T02:50:04.106Z,23.60
2022-08-10T02:52:42.019Z,23.60
2022-08-10T02:55:19.431Z,23.60
2022-08-10T02:58:15.227Z,23.60
2022-08-10T03:00:50.775Z,23.60
2022-08-10T03:03:24.462Z,23.60
2022-08-10T03:06:00.574Z,23.70
2022-08-10T03:08:34.981Z,23.70
2022-08-10T03:11:07.107Z,23.70
2022-08-10T03:13:36.687Z,23.80
2022-08-10T03:16:06.122Z,23.80
2022-08-10T03:18:35.430Z,23.80
2022-08-10T03:21:11.362Z,23.80
2022-08-10T03:23:42.436Z,23.80
2022-08-10T03:26:12.660Z,23.80
2022-08-10T03:28:41.614Z,23.80
2022-08-10T03:31:10.171Z,23.70
2022-08-10T03:33:44.631Z,23.70
2022-08-10T03:36:39.972Z,23.70
2022-08-10T03:39:02.618Z,23.70
2022-08-10T03:41:35.954Z,23.70
2022-08-10T03:44:07.057Z,23.70
2022-08-10T03:46:39.828Z,23.70
2022-08-10T03:49:08.868Z,23.60
2022-08-10T03:51:39.038Z,23.60
2022-08-10T03:54:08.599Z,23.70
2022-08-10T03:56:38.698Z,23.70
2022-08-10T03:59:09.570Z,23.60
2022-08-10T04:02:41.728Z,23.70
2022-08-10T04:04:27.271Z,23.60
2022-08-10T04:06:59.832Z,23.60
2022-08-10T04:09:53.920Z,23.60
2022-08-10T04:12:18.568Z,23.70
2022-08-10T04:14:50.713Z,23.70
2022-08-10T04:18:05.224Z,23.60
2022-08-10T04:20:19.537Z,23.70
2022-08-10T04:22:53.990Z,23.70
2022-08-10T04:25:24.926Z,23.60
2022-08-10T04:27:54.670Z,23.60
2022-08-10T04:30:23.238Z,23.60
2022-08-10T04:32:56.042Z,23.60
2022-08-10T04:35:27.156Z,23.60
2022-08-10T04:37:59.230Z,23.60
2022-08-10T04:40:29.108Z,23.60
2022-08-10T04:43:10.495Z,23.60
2022-08-10T04:45:48.715Z,23.60
2022-08-10T04:48:39.955Z,23.60
2022-08-10T04:51:15.308Z,23.60
2022-08-10T04:54:06.169Z,23.60
2022-08-10T04:56:36.769Z,23.40
2022-08-10T04:59:06.549Z,23.30
2022-08-10T05:02:21.471Z,23.30
2022-08-10T05:04:36.022Z,23.20
2022-08-10T05:07:09.555Z,23.20
2022-08-10T05:10:04.854Z,23.20
2022-08-10T05:12:29.305Z,23.20
2022-08-10T05:14:57.698Z,23.30
2022-08-10T05:17:25.961Z,23.30
2022-08-10T05:20:01.751Z,23.30
2022-08-10T05:22:36.122Z,23.30
2022-08-10T05:25:08.003Z,23.30
2022-08-10T05:27:36.576Z,23.50
2022-08-10T05:30:08.006Z,23.50
2022-08-10T05:32:57.413Z,23.60
2022-08-10T05:35:26.094Z,23.60
2022-08-10T05:38:08.965Z,23.70
2022-08-10T05:40:46.067Z,23.70
2022-08-10T05:43:17.828Z,23.70
2022-08-10T05:46:19.209Z,23.80
2022-08-10T05:48:41.994Z,23.80
2022-08-10T05:51:24.136Z,23.90
2022-08-10T05:54:02.075Z,23.80
2022-08-10T05:56:53.632Z,23.80
2022-08-10T06:00:35.341Z,23.80
2022-08-10T06:02:41.048Z,23.80
2022-08-10T06:05:11.941Z,23.80
2022-08-10T06:07:44.301Z,23.80
2022-08-10T06:10:31.657Z,23.90
2022-08-10T06:13:30.814Z,23.80
2022-08-10T06:16:06.515Z,23.90
2022-08-10T06:18:35.116Z,23.90
2022-08-10T06:21:03.943Z,23.90
2022-08-10T06:23:33.615Z,23.90
2022-08-10T06:26:09.961Z,23.90
2022-08-10T06:28:54.005Z,24.00
2022-08-10T06:31:47.487Z,24.00
2022-08-10T06:34:25.323Z,24.00
2022-08-10T06:36:54.870Z,24.00
2022-08-10T06:39:39.324Z,24.00
2022-08-10T06:42:17.611Z,24.00
2022-08-10T06:45:01.497Z,24.00
2022-08-10T06:47:38.305Z,24.00
2022-08-10T06:50:14.794Z,24.00
2022-08-10T06:53:04.084Z,24.00
2022-08-10T06:55:50.082Z,24.00
2022-08-10T06:58:26.701Z,24.00
2022-08-10T07:00:58.134Z,24.00
2022-08-10T07:03:35.567Z,24.00
2022-08-10T07:06:05.699Z,24.00
2022-08-10T07:08:36.728Z,24.10
2022-08-10T07:11:10.020Z,24.10
2022-08-10T07:14:16.951Z,24.00
2022-08-10T07:16:32.692Z,24.10
2022-08-10T07:19:02.594Z,24.10
2022-08-10T07:21:32.340Z,24.10
2022-08-10T07:24:02.116Z,24.10
2022-08-10T07:26:32.142Z,24.10
2022-08-10T07:29:01.593Z,24.10
2022-08-10T07:31:55.027Z,24.10
2022-08-10T07:34:29.144Z,24.10
2022-08-10T07:37:03.024Z,24.10
2022-08-10T07:40:02.261Z,24.10
2022-08-10T07:42:25.421Z,24.10
2022-08-10T07:44:54.049Z,24.10
2022-08-10T07:47:46.292Z,24.10
2022-08-10T07:50:23.248Z,24.10
2022-08-10T07:52:56.365Z,24.10
2022-08-10T07:56:03.553Z,24.10
2022-08-10T07:58:17.049Z,24.10
2022-08-10T08:00:47.547Z,24.10
2022-08-10T08:03:17.948Z,24.10
2022-08-10T08:06:02.634Z,24.10
2022-08-10T08:08:34.602Z,24.10
2022-08-10T08:11:04.077Z,24.10
2022-08-10T08:13:32.701Z,24.10
2022-08-10T08:16:16.951Z,24.10
2022-08-10T08:19:24.084Z,24.10
2022-08-10T08:24:14.655Z,24.10
2022-08-10T08:24:36.657Z,24.10
2022-08-10T08:27:07.697Z,24.10
2022-08-10T08:29:38.476Z,24.10
2022-08-10T08:32:08.086Z,24.10
2022-08-10T08:34:40.464Z,24.10
2022-08-10T08:37:12.193Z,24.10
2022-08-10T08:39:47.573Z,24.10
2022-08-10T08:42:45.635Z,24.10
2022-08-10T08:45:25.126Z,24.20
2022-08-10T08:48:15.350Z,24.20
2022-08-10T08:51:06.312Z,24.20
2022-08-10T08:54:03.450Z,24.20
2022-08-10T08:56:48.185Z,24.20
2022-08-10T08:59:32.636Z,24.20
2022-08-10T09:02:19.034Z,24.20
2022-08-10T09:05:22.605Z,24.20
2022-08-10T09:08:14.078Z,24.20
2022-08-10T09:10:53.838Z,24.20
2022-08-10T09:13:29.520Z,24.20
2022-08-10T09:16:21.702Z,24.20
2022-08-10T09:18:57.157Z,24.20
2022-08-10T09:21:55.095Z,24.20
2022-08-10T09:24:45.466Z,24.20
2022-08-10T09:27:21.580Z,24.20
2022-08-10T09:29:57.129Z,24.20
2022-08-10T09:35:39.869Z,24.20
2022-08-10T09:36:24.601Z,24.20
2022-08-10T09:38:43.531Z,24.20
2022-08-10T09:41:27.018Z,24.20
2022-08-10T09:44:07.112Z,24.20
2022-08-10T09:47:06.379Z,24.20
2022-08-10T09:49:54.825Z,24.20
2022-08-10T09:52:35.970Z,24.20
2022-08-10T09:55:15.678Z,24.30
2022-08-10T09:57:58.155Z,24.20
2022-08-10T10:00:35.868Z,24.20
2022-08-10T10:03:17.282Z,24.20
2022-08-10T10:05:56.728Z,24.20
2022-08-10T10:08:34.225Z,24.20
2022-08-10T10:11:12.814Z,24.20
2022-08-10T10:14:02.944Z,24.20
2022-08-10T10:16:52.942Z,24.20
2022-08-10T10:19:44.771Z,24.20
2022-08-10T10:22:38.034Z,24.20
2022-08-10T10:25:19.757Z,24.20
2022-08-10T10:27:59.819Z,24.20
2022-08-10T10:30:39.662Z,24.20
2022-08-10T10:33:19.376Z,24.20
2022-08-10T10:35:55.037Z,24.30
2022-08-10T10:38:29.009Z,24.30
2022-08-10T10:41:04.420Z,24.30
2022-08-10T10:43:51.418Z,24.30
2022-08-10T10:46:39.818Z,24.30
2022-08-10T10:49:21.813Z,24.30
2022-08-10T10:52:00.071Z,24.30
2022-08-10T10:54:44.123Z,24.30
2022-08-10T10:57:22.411Z,24.30
2022-08-10T11:00:12.685Z,24.40
2022-08-10T11:03:09.299Z,24.40
2022-08-10T11:05:47.190Z,24.30
2022-08-10T11:08:28.767Z,24.40
2022-08-10T11:11:03.752Z,24.30
2022-08-10T11:14:25.004Z,24.30
2022-08-10T11:17:00.034Z,24.30
2022-08-10T11:20:01.686Z,24.30
2022-08-10T11:22:37.611Z,24.30
2022-08-10T11:25:13.913Z,24.30
2022-08-10T11:27:50.562Z,24.30
2022-08-10T11:30:22.169Z,24.30
2022-08-10T11:33:04.911Z,24.30
2022-08-10T11:35:44.732Z,24.30
2022-08-10T11:38:34.537Z,24.30
2022-08-10T11:42:06.691Z,24.30
2022-08-10T11:44:10.045Z,24.30
2022-08-10T11:46:47.849Z,24.30
2022-08-10T11:49:31.005Z,24.30
2022-08-10T11:52:07.247Z,24.30
2022-08-10T11:54:44.348Z,24.30
2022-08-10T11:57:13.971Z,24.30
2022-08-10T11:59:59.638Z,24.40
2022-08-10T12:02:33.498Z,24.40
2022-08-10T12:05:08.567Z,24.40
2022-08-10T12:10:02.056Z,24.40
2022-08-10T12:10:41.138Z,24.40
2022-08-10T12:13:16.300Z,24.30
2022-08-10T12:15:54.577Z,24.30
2022-08-10T12:18:30.029Z,24.30
2022-08-10T12:21:05.365Z,24.30
2022-08-10T12:23:43.423Z,24.30
2022-08-10T12:26:19.490Z,24.30
2022-08-10T12:28:57.086Z,24.30
2022-08-10T12:31:30.996Z,24.30
2022-08-10T12:34:15.144Z,24.40
2022-08-10T12:36:49.448Z,24.40
2022-08-10T12:39:27.714Z,24.30
2022-08-10T12:42:10.238Z,24.40
2022-08-10T12:44:49.292Z,24.40
2022-08-10T12:47:39.420Z,24.40
2022-08-10T12:50:30.214Z,24.40
2022-08-10T12:53:07.292Z,24.40
2022-08-10T12:55:40.050Z,24.40
2022-08-10T12:58:58.333Z,24.50
2022-08-10T13:01:16.139Z,24.50
2022-08-10T13:04:22.279Z,24.50
2022-08-10T13:06:46.046Z,24.50
2022-08-10T13:09:15.142Z,24.50
2022-08-10T13:12:36.853Z,24.50
2022-08-10T13:14:51.838Z,24.50
2022-08-10T13:17:38.619Z,24.50
2022-08-10T13:20:18.436Z,24.50
2022-08-10T13:22:48.896Z,24.40
2022-08-10T13:25:24.166Z,24.40
2022-08-10T13:28:01.484Z,24.40
2022-08-10T13:30:50.645Z,24.40
2022-08-10T13:34:41.575Z,24.40
2022-08-10T13:36:10.150Z,24.40
2022-08-10T13:38:40.960Z,24.40
2022-08-10T13:41:10.891Z,24.40
2022-08-10T13:43:55.571Z,24.40
2022-08-10T13:46:24.385Z,24.40
2022-08-10T13:48:54.128Z,24.40
2022-08-10T13:51:54.551Z,24.40
2022-08-10T13:54:14.761Z,24.40
2022-08-10T13:56:45.305Z,24.50
2022-08-10T13:59:16.600Z,24.40
2022-08-10T14:01:50.575Z,24.50
2022-08-10T14:04:19.878Z,24.50
2022-08-10T14:06:56.083Z,24.50
2022-08-10T14:09:30.974Z,24.50
2022-08-10T14:12:00.223Z,24.50
2022-08-10T14:14:32.086Z,24.50
2022-08-10T14:17:01.677Z,24.50
2022-08-10T14:19:33.206Z,24.50
2022-08-10T14:22:05.277Z,24.50
2022-08-10T14:24:34.330Z,24.50
2022-08-10T14:27:07.795Z,24.50
2022-08-10T14:29:45.119Z,24.50
2022-08-10T14:32:16.929Z,24.50
2022-08-10T14:36:16.313Z,24.50
2022-08-10T14:37:38.870Z,24.50
2022-08-10T14:40:12.460Z,24.50
2022-08-10T14:42:49.767Z,24.50
2022-08-10T14:45:25.744Z,24.50
2022-08-10T14:48:03.550Z,24.50
2022-08-10T14:50:34.340Z,24.50
2022-08-10T14:53:10.063Z,24.50
2022-08-10T14:55:57.812Z,24.50
2022-08-10T14:58:32.862Z,24.50
2022-08-10T15:01:03.862Z,24.50
2022-08-10T15:04:01.286Z,24.50
2022-08-10T15:06:30.756Z,24.60
2022-08-10T15:09:12.544Z,24.50
2022-08-10T15:12:15.403Z,24.60
2022-08-10T15:14:44.757Z,24.60
2022-08-10T15:17:26.530Z,24.50
2022-08-10T15:20:02.888Z,24.60
2022-08-10T15:22:41.824Z,24.50
2022-08-10T15:25:18.689Z,24.60
2022-08-10T15:27:53.853Z,24.50
2022-08-10T15:30:32.033Z,24.50
2022-08-10T15:33:57.879Z,24.50
2022-08-10T15:36:35.721Z,24.50
2022-08-10T15:39:16.385Z,24.50
2022-08-10T15:42:01.646Z,24.50
2022-08-10T15:44:39.534Z,24.50
2022-08-10T15:47:15.289Z,24.50
2022-08-10T15:49:54.257Z,24.50
2022-08-10T15:52:39.063Z,24.50
2022-08-10T15:55:43.681Z,24.50
2022-08-10T15:58:18.901Z,24.50
2022-08-10T16:00:56.231Z,24.50
2022-08-10T16:03:37.830Z,24.60
2022-08-10T16:06:10.823Z,24.60
2022-08-10T16:08:55.846Z,24.60
2022-08-10T16:11:37.860Z,24.60
2022-08-10T16:14:28.109Z,24.70
2022-08-10T16:16:57.635Z,24.70
2022-08-10T16:19:29.108Z,24.60
2022-08-10T16:22:33.788Z,24.70
2022-08-10T16:24:57.516Z,24.70
2022-08-10T16:27:29.025Z,24.60
2022-08-10T16:30:02.253Z,24.60
2022-08-10T16:32:32.984Z,24.60
2022-08-10T16:35:08.833Z,24.60
2022-08-10T16:37:58.163Z,24.60
2022-08-10T16:40:30.270Z,24.60
2022-08-10T16:43:03.290Z,24.70
2022-08-10T16:45:37.497Z,24.60
2022-08-10T16:48:08.853Z,24.60
2022-08-10T16:50:41.823Z,24.60
2022-08-10T16:53:16.719Z,24.60
2022-08-10T16:55:50.652Z,24.60
2022-08-10T16:58:27.478Z,24.60
2022-08-10T17:01:03.204Z,24.60
2022-08-10T17:04:08.625Z,24.60
2022-08-10T17:06:29.578Z,24.60
2022-08-10T17:09:02.304Z,24.60
2022-08-10T17:11:33.383Z,24.60
2022-08-10T17:14:05.404Z,24.60
2022-08-10T17:16:38.112Z,24.60
2022-08-10T17:19:14.936Z,24.60
2022-08-10T17:21:52.317Z,24.60
2022-08-10T17:24:28.759Z,24.60
2022-08-10T17:27:01.405Z,24.60
2022-08-10T17:30:03.807Z,24.70
2022-08-10T17:32:43.831Z,24.70
2022-08-10T17:35:23.038Z,24.60
2022-08-10T17:37:58.189Z,24.60
2022-08-10T17:40:31.005Z,24.60
2022-08-10T17:43:01.644Z,24.60
2022-08-10T17:45:48.654Z,24.60
2022-08-10T17:48:21.871Z,24.60
2022-08-10T17:50:52.559Z,24.60
2022-08-10T17:53:26.399Z,24.60
2022-08-10T17:55:58.711Z,24.60
2022-08-10T17:58:31.121Z,24.60
2022-08-10T18:01:41.434Z,24.60
2022-08-10T18:03:56.626Z,24.60
2022-08-10T18:06:25.802Z,24.60
2022-08-10T18:08:58.857Z,24.60
2022-08-10T18:11:32.157Z,24.60
2022-08-10T18:14:04.210Z,24.60
2022-08-10T18:16:34.351Z,24.60
2022-08-10T18:19:08.117Z,24.60
2022-08-10T18:21:41.441Z,24.70
2022-08-10T18:24:16.437Z,24.70
2022-08-10T18:26:50.077Z,24.70
2022-08-10T18:29:21.838Z,24.80
2022-08-10T18:31:56.467Z,24.80
2022-08-10T18:34:25.734Z,24.80
2022-08-10T18:36:55.525Z,24.70
2022-08-10T18:39:28.448Z,24.70
2022-08-10T18:42:09.682Z,24.70
2022-08-10T18:44:43.173Z,24.70
2022-08-10T18:47:17.259Z,24.70
2022-08-10T18:50:00.450Z,24.70
2022-08-10T18:52:33.644Z,24.70
2022-08-10T18:55:24.615Z,24.70
2022-08-10T18:58:46.384Z,24.70
2022-08-10T19:01:33.008Z,24.80
2022-08-10T19:04:25.039Z,24.80
2022-08-10T19:07:36.315Z,24.80
2022-08-10T19:10:17.734Z,24.80
2022-08-10T19:12:53.995Z,24.80
2022-08-10T19:15:37.653Z,24.80
2022-08-10T19:18:24.062Z,25.00
2022-08-10T19:20:58.438Z,25.00
2022-08-10T19:23:55.025Z,25.10
2022-08-10T19:26:44.409Z,25.00
2022-08-10T19:30:09.255Z,25.00
2022-08-10T19:32:32.709Z,24.90
2022-08-10T19:35:12.067Z,24.90
2022-08-10T19:38:00.527Z,24.90
2022-08-10T19:40:44.083Z,24.90
2022-08-10T19:43:59.477Z,24.90
2022-08-10T19:46:27.897Z,24.90
2022-08-10T19:49:07.333Z,24.90
2022-08-10T19:51:49.906Z,24.90
2022-08-10T19:54:30.376Z,24.90
2022-08-10T19:57:10.083Z,24.80
2022-08-10T20:00:16.049Z,24.80
2022-08-10T20:02:53.725Z,24.80
2022-08-10T20:05:33.379Z,24.80
2022-08-10T20:08:15.415Z,24.80
2022-08-10T20:10:56.073Z,24.80
2022-08-10T20:13:34.813Z,24.80
2022-08-10T20:16:09.653Z,24.80
2022-08-10T20:18:43.158Z,24.80
2022-08-10T20:21:20.752Z,24.90
2022-08-10T20:23:55.718Z,24.90
2022-08-10T20:26:29.130Z,24.90
2022-08-10T20:29:08.853Z,24.90
2022-08-10T20:31:44.378Z,24.90
2022-08-10T20:34:20.923Z,24.90
2022-08-10T20:36:59.396Z,24.90
2022-08-10T20:39:42.983Z,24.90
2022-08-10T20:42:21.863Z,24.80
2022-08-10T20:45:02.784Z,24.90
2022-08-10T20:47:53.996Z,24.80
2022-08-10T20:50:34.956Z,24.80
2022-08-10T20:53:10.311Z,24.80
2022-08-10T20:55:53.445Z,24.80
2022-08-10T20:58:44.485Z,24.80
2022-08-10T21:01:17.928Z,24.80
2022-08-10T21:04:01.544Z,24.80
2022-08-10T21:07:06.766Z,24.80
2022-08-10T21:10:04.251Z,24.80
2022-08-10T21:12:59.201Z,24.80
2022-08-10T21:15:48.732Z,24.80
2022-08-10T21:22:01.323Z,24.80
2022-08-10T21:24:38.245Z,24.80
2022-08-10T21:25:41.427Z,24.80
2022-08-10T21:27:36.675Z,24.80
2022-08-10T21:30:09.313Z,24.80
2022-08-10T21:32:53.837Z,24.80
2022-08-10T21:35:36.946Z,24.80
2022-08-10T21:38:12.872Z,24.80
2022-08-10T21:41:56.656Z,24.80
2022-08-10T21:45:10.270Z,24.80
2022-08-10T21:48:17.645Z,24.90
2022-08-10T21:51:16.317Z,24.90
2022-08-10T21:54:21.882Z,25.00
2022-08-10T21:57:23.950Z,25.00
2022-08-10T22:00:18.396Z,25.00
2022-08-10T22:03:08.861Z,25.00
2022-08-10T22:05:57.183Z,25.00
2022-08-10T22:08:53.604Z,24.90
2022-08-10T22:11:42.917Z,24.90
2022-08-10T22:14:33.773Z,24.80
2022-08-10T22:18:03.098Z,24.80
2022-08-10T22:20:40.516Z,24.80
2022-08-10T22:23:51.791Z,24.70
2022-08-10T22:27:00.696Z,24.70
2022-08-10T22:29:53.424Z,24.70
2022-08-10T22:32:50.544Z,24.60
2022-08-10T22:36:12.825Z,24.60
2022-08-10T22:39:16.940Z,24.60
2022-08-10T22:42:59.359Z,24.60
2022-08-10T22:45:48.263Z,24.60
2022-08-10T22:48:35.285Z,24.50
2022-08-10T22:51:09.339Z,24.50
2022-08-10T22:54:30.704Z,24.50
2022-08-10T22:57:19.927Z,24.50
2022-08-10T22:59:49.266Z,24.50
2022-08-10T23:02:30.596Z,24.50
2022-08-10T23:05:07.769Z,24.50
2022-08-10T23:07:46.386Z,24.50
2022-08-10T23:10:18.781Z,24.50
2022-08-10T23:12:56.535Z,24.50
2022-08-10T23:15:53.917Z,24.50
2022-08-10T23:18:50.782Z,24.50
2022-08-10T23:21:23.648Z,24.50
2022-08-10T23:23:56.037Z,24.50
2022-08-10T23:26:27.973Z,24.50
2022-08-10T23:29:03.273Z,24.50
2022-08-10T23:32:00.907Z,24.50
2022-08-10T23:34:31.580Z,24.50
2022-08-10T23:37:03.853Z,24.40
2022-08-10T23:39:37.594Z,24.40
2022-08-10T23:42:10.253Z,24.40
2022-08-10T23:44:43.963Z,24.40
2022-08-10T23:47:17.138Z,24.40
2022-08-10T23:49:48.836Z,24.40
2022-08-10T23:52:24.661Z,24.30
2022-08-10T23:54:58.308Z,24.30
2022-08-10T23:57:31.278Z,24.30
